Pagrindinis puslapis
METAR-TAF:

METAR-TAF

Oro uostai :

Adijamanas, Turkija

platuma: 37-43-54N, ilguma: 38-28-08E, Aukštis: 675 m

Dabartinis oras

Ataskaita buvo paskelbta 12 valandos ir 24 minutes, ne 12:50 UTC
Vėjas 2 kt nuo kintamojo kryptimis
Temperatūra 24°C
Drėgmė 18%
Slėgis 1015 hPa
Matomumas 10 km arba daugiau
Su prošvaistėmis ne aukštis 3500 ft
Su prošvaistėmis ne aukštis 9000 ft

METAR: LTCP 311250Z VRB02KT 9999 BKN035 BKN090 24/M02 Q1015

Laikas: 04:14 (01:14 UTC)

Prognozė

Ataskaita buvo paskelbta 11 valandos ir 34 minutes, ne 13:40 UTC
Prognozė galioja nuo 31 metu 15 UTC su 31 metu 24 UTC
Vėjas 13 kt iš Rytų/Pietryčių
Matomumas 10 km arba daugiau
Išsisklaidę debesys ne aukštis 4000 ft
Su prošvaistėmis ne aukštis 10000 ft
Laikinai
nuo 31 metu 15 UTC su 31 metu 18 UTC
Su prošvaistėmis ne aukštis 3500 ft
Su prošvaistėmis ne aukštis 9000 ft
lietus

TAF: LTCP 311340Z 3115/3124 12013KT 9999 SCT040 BKN100 TEMPO 3115/3118 -SHRA BKN035 BKN090

Orai ataskaitas ir orų prognozės (METAR, TAF).

turimą stotys yra geltonos ir raudonos taškus žemėlapyje.

Perkelti pele per norėdami pamatyti stoties vardą.

Tada spustelėkite, norėdami matyti oro stebėjimo ir prognozės.

Norėdami pakeisti žemėlapį: spustelėkite ant žalios mygtukų su juodo kryžiaus žemyn,; žalią mygtuką su brūkšneliu, jei norite nutolinti; arba žalių rodyklių gretimoms žemėlapius.


METAR-TAF: